Time;durP1;ratioP1;P1;durP2;ratioP2;P2;SDS_P1;SDS_P2;PMS_P1;PMS_P2;Temp;Humidity;BMP_temperature;BMP_pressure;BME280_temperature;BME280_humidity;BME280_pressure;Samples;Min_cycle;Max_cycle;Signal;HPM_P1;HPM_P2
2023/09/10 00:02:20;;;;;;;15.03;6.83;;;20.60;99.90;;;;;;5087990;28;20287;-70
2023/09/10 00:04:45;;;;;;;15.43;6.50;;;20.60;99.90;;;;;;5088173;28;20212;-69
2023/09/10 00:07:11;;;;;;;11.63;7.20;;;20.50;99.90;;;;;;5086722;28;20947;-70
2023/09/10 00:09:36;;;;;;;9.00;7.17;;;20.40;99.90;;;;;;5088099;28;20193;-70
2023/09/10 00:12:02;;;;;;;11.50;6.70;;;20.40;99.90;;;;;;5088125;28;20969;-69
2023/09/10 00:14:28;;;;;;;14.77;6.90;;;20.30;99.90;;;;;;5087919;28;20223;-70
2023/09/10 00:16:53;;;;;;;12.10;7.30;;;20.30;99.90;;;;;;5087871;28;20211;-70
2023/09/10 00:19:19;;;;;;;10.17;6.60;;;20.30;99.90;;;;;;5088084;28;20186;-70
2023/09/10 00:21:44;;;;;;;10.57;7.53;;;20.20;99.90;;;;;;5086532;28;20273;-70
2023/09/10 00:24:11;;;;;;;13.63;6.87;;;20.20;99.90;;;;;;5088012;28;20194;-71
2023/09/10 00:26:36;;;;;;;7.97;7.07;;;20.10;99.90;;;;;;5091596;28;20306;-70
2023/09/10 00:29:02;;;;;;;9.63;6.90;;;20.10;99.90;;;;;;5091681;28;20519;-70
2023/09/10 00:31:28;;;;;;;13.30;7.17;;;20.00;99.90;;;;;;5073343;28;20270;-71
2023/09/10 00:33:53;;;;;;;11.20;6.93;;;19.90;99.90;;;;;;5091551;28;20495;-70
2023/09/10 00:36:19;;;;;;;13.33;7.40;;;20.00;99.90;;;;;;5091312;28;20198;-70
2023/09/10 00:38:44;;;;;;;11.93;7.83;;;20.00;99.90;;;;;;5091329;28;20183;-70
2023/09/10 00:41:10;;;;;;;13.33;7.50;;;20.10;99.90;;;;;;5091460;28;20554;-70
2023/09/10 00:43:36;;;;;;;10.70;7.90;;;19.90;99.90;;;;;;5089860;28;20263;-70
2023/09/10 00:46:03;;;;;;;12.07;8.10;;;19.90;99.90;;;;;;5091202;28;20214;-70
2023/09/10 00:48:29;;;;;;;11.10;7.63;;;19.90;99.90;;;;;;5091376;28;20254;-70
2023/09/10 00:50:55;;;;;;;19.17;9.10;;;19.90;99.90;;;;;;5091066;28;20423;-70
2023/09/10 00:53:22;;;;;;;9.30;8.20;;;19.90;99.90;;;;;;5091053;28;20834;-70
2023/09/10 00:55:48;;;;;;;12.10;8.97;;;19.90;99.90;;;;;;5090846;28;20222;-70
2023/09/10 00:58:14;;;;;;;10.70;7.80;;;19.80;99.90;;;;;;5090852;28;20417;-70
2023/09/10 01:00:43;;;;;;;11.47;9.07;;;19.80;99.90;;;;;;5089361;28;20429;-70
2023/09/10 01:03:09;;;;;;;12.27;8.70;;;19.80;99.90;;;;;;5091235;28;20182;-70
2023/09/10 01:05:36;;;;;;;11.00;7.43;;;19.80;99.90;;;;;;5089144;28;20496;-70
2023/09/10 01:08:05;;;;;;;20.80;8.60;;;19.80;99.90;;;;;;5090574;28;20474;-70
2023/09/10 01:10:56;;;;;;;14.67;8.10;;;19.60;99.90;;;;;;5090554;28;21084;-70
2023/09/10 01:13:40;;;;;;;10.37;8.07;;;19.60;99.90;;;;;;5088228;28;20468;-70
2023/09/10 01:16:29;;;;;;;13.30;9.03;;;19.60;99.90;;;;;;5090486;28;20443;-70
2023/09/10 01:19:03;;;;;;;11.37;8.77;;;19.70;99.90;;;;;;5090469;28;20517;-70
2023/09/10 01:21:44;;;;;;;10.27;8.60;;;19.70;99.90;;;;;;5090877;28;20870;-70
2023/09/10 01:24:19;;;;;;;18.17;8.70;;;19.60;99.90;;;;;;5090707;28;20412;-70
2023/09/10 01:26:57;;;;;;;12.80;8.90;;;19.50;99.90;;;;;;5090457;28;20446;-70
2023/09/10 01:29:23;;;;;;;10.73;9.63;;;19.40;99.90;;;;;;5089926;28;20415;-70
2023/09/10 01:31:56;;;;;;;12.27;9.50;;;19.30;99.90;;;;;;5090218;28;20519;-71
2023/09/10 01:34:25;;;;;;;13.00;9.57;;;19.30;99.90;;;;;;5090473;28;20682;-70
2023/09/10 01:36:56;;;;;;;12.00;8.63;;;19.30;99.90;;;;;;5088300;28;20437;-70
2023/09/10 01:39:41;;;;;;;11.63;10.03;;;19.30;99.90;;;;;;5090309;28;20981;-70
2023/09/10 01:42:08;;;;;;;13.80;10.50;;;19.20;99.90;;;;;;5090290;28;20439;-70
2023/09/10 01:44:35;;;;;;;11.77;9.87;;;19.10;99.90;;;;;;5089017;28;21134;-71
2023/09/10 01:47:02;;;;;;;13.60;10.90;;;19.10;99.90;;;;;;5090109;28;21275;-70
2023/09/10 01:49:28;;;;;;;12.40;10.70;;;19.00;99.90;;;;;;5090433;28;20452;-70
2023/09/10 01:51:54;;;;;;;16.00;11.17;;;19.10;99.90;;;;;;5089700;28;20474;-70
2023/09/10 01:54:19;;;;;;;16.30;11.70;;;19.10;99.90;;;;;;5090233;28;20479;-70
2023/09/10 01:56:45;;;;;;;14.50;10.57;;;19.20;99.90;;;;;;5089304;28;20601;-70
2023/09/10 01:59:10;;;;;;;18.90;10.57;;;19.10;99.90;;;;;;5089552;28;20186;-70
2023/09/10 02:01:36;;;;;;;19.87;11.10;;;19.10;99.90;;;;;;5090755;28;20228;-70
2023/09/10 02:04:02;;;;;;;15.20;10.57;;;19.00;99.90;;;;;;5090759;28;20183;-70
2023/09/10 02:06:28;;;;;;;15.27;10.83;;;19.10;99.90;;;;;;5089286;28;20577;-70
2023/09/10 02:08:54;;;;;;;13.70;10.00;;;19.10;99.90;;;;;;5089412;28;20412;-70
2023/09/10 02:11:19;;;;;;;13.97;10.30;;;19.00;99.90;;;;;;5090531;28;20265;-70
2023/09/10 02:13:46;;;;;;;18.83;10.93;;;19.00;99.90;;;;;;5090434;28;20207;-72
2023/09/10 02:16:12;;;;;;;14.10;10.00;;;18.90;99.90;;;;;;5088934;28;20735;-70
2023/09/10 02:18:37;;;;;;;15.33;11.10;;;18.90;99.90;;;;;;5090135;28;20417;-70
2023/09/10 02:21:10;;;;;;;15.90;10.70;;;18.80;99.90;;;;;;5089794;28;20414;-70
2023/09/10 02:23:36;;;;;;;13.47;10.57;;;18.80;99.90;;;;;;5089912;28;20258;-70
2023/09/10 02:26:02;;;;;;;18.60;11.30;;;18.80;99.90;;;;;;5089780;28;21190;-69
2023/09/10 02:28:28;;;;;;;12.90;9.90;;;18.80;99.90;;;;;;5088142;28;20512;-70
2023/09/10 02:30:53;;;;;;;15.37;10.23;;;18.70;99.90;;;;;;5089467;28;20183;-69
2023/09/10 02:33:19;;;;;;;12.37;10.30;;;18.70;99.90;;;;;;5089340;28;20584;-69
2023/09/10 02:35:45;;;;;;;15.37;11.17;;;18.60;99.90;;;;;;5089399;28;20199;-69
2023/09/10 02:38:10;;;;;;;17.83;11.17;;;18.50;99.90;;;;;;5089360;28;20214;-69
2023/09/10 02:40:36;;;;;;;15.93;11.23;;;18.50;99.90;;;;;;5071016;28;20252;-69
2023/09/10 02:43:01;;;;;;;12.90;10.90;;;18.40;99.90;;;;;;5088258;28;20554;-70
2023/09/10 02:45:27;;;;;;;15.57;10.97;;;18.40;99.90;;;;;;5089461;28;20188;-69
2023/09/10 02:47:52;;;;;;;14.60;11.20;;;18.30;99.90;;;;;;5089011;28;20194;-71
2023/09/10 02:50:18;;;;;;;23.43;11.10;;;18.40;99.90;;;;;;5089067;28;20281;-70
2023/09/10 02:52:43;;;;;;;15.77;11.03;;;18.40;99.90;;;;;;5088132;28;20263;-70
2023/09/10 02:55:09;;;;;;;12.17;10.33;;;18.50;99.90;;;;;;5089018;28;20198;-70
2023/09/10 02:57:35;;;;;;;14.10;10.77;;;18.40;99.90;;;;;;5089402;28;20609;-69
2023/09/10 03:00:00;;;;;;;15.57;11.10;;;18.40;99.90;;;;;;5089324;28;20182;-70
2023/09/10 03:02:26;;;;;;;14.80;10.83;;;18.40;99.90;;;;;;5088091;28;20269;-70
2023/09/10 03:04:51;;;;;;;12.33;11.10;;;18.50;99.90;;;;;;5089308;28;20210;-70
2023/09/10 03:07:17;;;;;;;14.40;9.73;;;18.50;99.90;;;;;;5087875;28;20229;-70
2023/09/10 03:09:42;;;;;;;13.83;10.40;;;18.50;99.90;;;;;;5087833;28;20183;-70
2023/09/10 03:12:26;;;;;;;15.67;12.37;;;18.40;99.90;;;;;;5087886;28;20183;-70
2023/09/10 03:14:52;;;;;;;12.90;11.13;;;18.40;99.90;;;;;;5087572;28;20194;-70
2023/09/10 03:17:18;;;;;;;17.67;11.50;;;18.40;99.90;;;;;;5088975;28;20431;-69
2023/09/10 03:19:44;;;;;;;19.90;11.37;;;18.30;99.90;;;;;;5089129;28;20404;-69
2023/09/10 03:22:10;;;;;;;13.93;11.03;;;18.30;99.90;;;;;;5089277;28;20837;-70
2023/09/10 03:24:37;;;;;;;18.30;11.63;;;18.30;99.90;;;;;;5089409;28;20409;-70
2023/09/10 03:27:02;;;;;;;21.30;12.40;;;18.40;99.90;;;;;;5089371;28;20431;-69
2023/09/10 03:29:28;;;;;;;17.60;11.90;;;18.30;99.90;;;;;;5089566;28;20499;-71
2023/09/10 03:31:54;;;;;;;15.00;12.00;;;18.30;99.90;;;;;;5089467;28;20231;-69
2023/09/10 03:34:21;;;;;;;13.27;11.30;;;18.30;99.90;;;;;;5087736;28;20467;-69
2023/09/10 03:36:46;;;;;;;15.70;12.20;;;18.30;99.90;;;;;;5089144;28;20196;-70
2023/09/10 03:39:12;;;;;;;13.47;10.87;;;18.20;99.90;;;;;;5089430;28;20770;-71
2023/09/10 03:41:38;;;;;;;14.47;12.40;;;18.20;99.90;;;;;;5088996;28;20182;-69
2023/09/10 03:44:03;;;;;;;13.33;11.17;;;18.30;99.90;;;;;;5088726;28;20249;-70
2023/09/10 03:46:29;;;;;;;13.27;11.70;;;18.30;99.90;;;;;;5087394;28;20251;-70
2023/09/10 03:48:54;;;;;;;18.57;12.43;;;18.20;99.90;;;;;;5088976;28;20216;-70
2023/09/10 03:51:20;;;;;;;13.90;12.43;;;18.30;99.90;;;;;;5087329;28;20198;-70
2023/09/10 03:53:46;;;;;;;14.27;11.63;;;18.30;99.90;;;;;;5088615;28;20677;-69
2023/09/10 03:56:11;;;;;;;12.87;11.00;;;18.30;99.90;;;;;;5087145;28;20726;-71
2023/09/10 03:58:37;;;;;;;11.83;10.57;;;18.30;99.90;;;;;;5088969;28;20191;-70
2023/09/10 04:01:03;;;;;;;13.17;11.80;;;18.30;99.90;;;;;;5091459;28;20179;-70
2023/09/10 04:03:28;;;;;;;19.03;10.97;;;18.20;99.90;;;;;;5092264;28;20206;-70
2023/09/10 04:05:54;;;;;;;12.20;10.47;;;18.20;99.90;;;;;;5092217;28;20209;-70
2023/09/10 04:08:20;;;;;;;13.90;10.50;;;18.20;99.90;;;;;;5092316;28;20236;-70
2023/09/10 04:10:45;;;;;;;15.80;11.10;;;18.20;99.90;;;;;;5091968;28;20595;-70
2023/09/10 04:13:11;;;;;;;15.60;10.70;;;18.20;99.90;;;;;;5091988;28;20847;-70
2023/09/10 04:15:37;;;;;;;18.73;10.30;;;18.30;99.90;;;;;;5090660;28;20279;-70
2023/09/10 04:18:04;;;;;;;15.03;10.00;;;18.20;99.90;;;;;;5090398;28;20235;-70
2023/09/10 04:20:30;;;;;;;13.83;11.83;;;18.30;99.90;;;;;;5091659;28;20691;-70
2023/09/10 04:22:55;;;;;;;22.13;12.07;;;18.20;99.90;;;;;;5091999;28;20515;-71
2023/09/10 04:25:21;;;;;;;17.00;12.20;;;18.20;99.90;;;;;;5090266;28;20174;-70
2023/09/10 04:27:47;;;;;;;16.93;11.60;;;18.20;99.90;;;;;;5091740;28;20565;-70
2023/09/10 04:30:12;;;;;;;16.57;11.40;;;18.20;99.90;;;;;;5092009;28;20202;-70
2023/09/10 04:32:38;;;;;;;14.20;11.77;;;18.10;99.90;;;;;;5091926;28;20677;-70
2023/09/10 04:35:07;;;;;;;20.23;12.00;;;18.10;99.90;;;;;;5090585;28;20178;-71
2023/09/10 04:37:34;;;;;;;15.27;12.87;;;18.10;99.90;;;;;;5090372;28;20227;-70
2023/09/10 04:40:07;;;;;;;16.17;12.17;;;18.10;99.90;;;;;;5091814;28;20424;-70
2023/09/10 04:42:36;;;;;;;25.67;13.27;;;18.10;99.90;;;;;;5090463;28;20484;-70
2023/09/10 04:45:05;;;;;;;16.87;13.00;;;18.00;99.90;;;;;;5092359;28;20433;-70
2023/09/10 04:47:30;;;;;;;13.83;11.97;;;18.10;99.90;;;;;;5091958;28;20443;-71
2023/09/10 04:49:56;;;;;;;16.30;12.23;;;18.10;99.90;;;;;;5090583;28;20419;-69
2023/09/10 04:52:21;;;;;;;16.97;12.57;;;18.00;99.90;;;;;;5092064;28;20686;-70
2023/09/10 04:54:47;;;;;;;17.20;12.47;;;18.10;99.90;;;;;;5090386;28;20245;-70
2023/09/10 04:57:13;;;;;;;21.13;12.70;;;18.00;99.90;;;;;;5091781;28;20673;-69
2023/09/10 04:59:38;;;;;;;17.23;12.77;;;17.90;99.90;;;;;;5091896;28;20729;-69
2023/09/10 05:02:05;;;;;;;14.17;12.77;;;17.90;99.90;;;;;;5091740;28;20710;-69
2023/09/10 05:04:30;;;;;;;18.53;12.73;;;18.00;99.90;;;;;;5091637;28;20182;-69
2023/09/10 05:06:58;;;;;;;20.73;13.17;;;18.10;99.90;;;;;;5091621;28;20954;-69
2023/09/10 05:09:24;;;;;;;17.93;12.53;;;18.10;99.90;;;;;;5091783;28;20186;-69
2023/09/10 05:11:49;;;;;;;15.40;12.87;;;18.20;99.90;;;;;;5090758;28;20511;-68
2023/09/10 05:14:17;;;;;;;16.27;12.03;;;18.30;99.90;;;;;;5091502;28;20628;-70
2023/09/10 05:16:42;;;;;;;17.77;12.40;;;18.20;99.90;;;;;;5091063;28;20205;-70
2023/09/10 05:19:08;;;;;;;13.27;11.80;;;18.20;99.90;;;;;;5091062;28;20420;-70
2023/09/10 05:21:34;;;;;;;15.00;11.10;;;18.20;99.90;;;;;;5091014;28;20678;-70
2023/09/10 05:23:59;;;;;;;16.60;12.17;;;18.10;99.90;;;;;;5089730;28;20180;-70
2023/09/10 05:26:25;;;;;;;16.33;12.17;;;18.20;99.90;;;;;;5090810;28;20202;-70
2023/09/10 05:28:51;;;;;;;13.20;11.37;;;18.30;99.90;;;;;;5090868;28;20185;-70
2023/09/10 05:31:16;;;;;;;19.10;12.20;;;18.40;99.90;;;;;;5090825;28;20181;-70
2023/09/10 05:33:42;;;;;;;14.93;11.97;;;18.50;99.90;;;;;;5090575;28;20205;-70
2023/09/10 05:36:08;;;;;;;13.50;12.10;;;18.50;99.90;;;;;;5090429;28;20198;-70
2023/09/10 05:38:34;;;;;;;18.30;11.40;;;18.60;99.90;;;;;;5090373;28;20193;-70
2023/09/10 05:41:01;;;;;;;16.40;11.43;;;18.60;99.90;;;;;;5090352;28;20193;-69
2023/09/10 05:43:29;;;;;;;16.80;12.30;;;18.60;99.90;;;;;;5090294;28;20207;-69
2023/09/10 05:45:55;;;;;;;15.80;11.70;;;18.70;99.90;;;;;;5089997;28;20441;-69
2023/09/10 05:48:22;;;;;;;12.83;10.50;;;18.70;99.90;;;;;;5090070;28;20826;-68
2023/09/10 05:50:48;;;;;;;13.63;11.70;;;18.90;99.90;;;;;;5090093;28;20500;-68
2023/09/10 05:53:13;;;;;;;17.87;12.33;;;19.00;99.90;;;;;;5089913;28;20473;-68
2023/09/10 05:55:40;;;;;;;12.07;10.27;;;19.10;99.90;;;;;;5089646;28;20221;-68
2023/09/10 05:58:07;;;;;;;13.97;11.80;;;19.20;99.90;;;;;;5089772;28;20184;-68
2023/09/10 06:00:32;;;;;;;18.30;12.77;;;19.30;99.90;;;;;;5088405;28;20432;-68
2023/09/10 06:02:58;;;;;;;15.53;11.30;;;19.40;99.90;;;;;;5089684;28;20513;-68
2023/09/10 06:05:24;;;;;;;15.83;11.00;;;19.40;99.90;;;;;;5089927;28;20179;-68
2023/09/10 06:07:49;;;;;;;17.97;12.10;;;19.30;99.90;;;;;;5089614;28;20178;-68
2023/09/10 06:10:15;;;;;;;13.20;11.60;;;19.30;99.90;;;;;;5089589;28;20197;-68
2023/09/10 06:12:40;;;;;;;19.13;13.00;;;19.40;99.90;;;;;;5089668;28;20191;-68
2023/09/10 06:15:07;;;;;;;15.10;12.80;;;19.40;99.90;;;;;;5089836;28;20234;-68
2023/09/10 06:17:36;;;;;;;13.00;10.90;;;19.40;99.90;;;;;;5089383;28;20202;-68
2023/09/10 06:20:02;;;;;;;19.93;12.37;;;19.60;99.90;;;;;;5089402;28;20448;-69
2023/09/10 06:22:28;;;;;;;21.43;11.90;;;19.50;99.90;;;;;;5089410;28;20423;-68
2023/09/10 06:24:54;;;;;;;15.17;13.07;;;19.60;99.90;;;;;;5087895;28;21091;-68
2023/09/10 06:27:20;;;;;;;13.60;11.60;;;19.60;99.90;;;;;;5089203;28;20864;-69
2023/09/10 06:29:46;;;;;;;12.57;11.03;;;19.60;99.90;;;;;;5089189;28;20236;-68
2023/09/10 06:32:11;;;;;;;18.43;11.87;;;19.70;99.90;;;;;;5089228;28;20186;-68
2023/09/10 06:34:37;;;;;;;15.17;11.77;;;19.80;99.90;;;;;;5088982;28;20852;-68
2023/09/10 06:37:03;;;;;;;19.17;12.00;;;19.90;99.90;;;;;;5089218;28;20959;-68
2023/09/10 06:39:30;;;;;;;17.20;12.93;;;20.00;99.90;;;;;;5089137;28;20561;-68
2023/09/10 06:41:56;;;;;;;16.30;12.30;;;20.10;99.90;;;;;;5089090;28;20489;-68
2023/09/10 06:44:22;;;;;;;17.93;11.53;;;20.10;99.90;;;;;;5089077;28;20795;-69
2023/09/10 06:46:47;;;;;;;14.80;12.67;;;20.00;99.90;;;;;;5089005;28;20519;-68
2023/09/10 06:49:13;;;;;;;15.90;11.33;;;19.90;99.90;;;;;;5089039;28;20186;-68
2023/09/10 06:51:39;;;;;;;16.10;12.13;;;20.00;99.90;;;;;;5089230;28;20210;-68
2023/09/10 06:54:04;;;;;;;12.93;11.60;;;20.10;99.90;;;;;;5088881;28;20218;-69
2023/09/10 06:56:30;;;;;;;16.20;11.83;;;20.10;99.90;;;;;;5088916;28;20628;-69
2023/09/10 06:58:55;;;;;;;19.03;12.30;;;20.20;99.90;;;;;;5088937;28;20186;-68
2023/09/10 07:01:21;;;;;;;16.33;12.50;;;20.20;99.90;;;;;;5088801;28;20966;-68
2023/09/10 07:03:51;;;;;;;14.83;12.33;;;20.20;99.90;;;;;;5088600;28;20182;-68
2023/09/10 07:06:17;;;;;;;14.10;12.47;;;20.20;99.90;;;;;;5088711;28;20212;-68
2023/09/10 07:08:42;;;;;;;13.27;11.90;;;20.20;99.90;;;;;;5088710;28;20423;-69
2023/09/10 07:11:08;;;;;;;13.87;12.33;;;20.40;99.90;;;;;;5087293;28;20210;-68
2023/09/10 07:13:36;;;;;;;13.43;11.60;;;20.40;99.90;;;;;;5088462;28;20681;-68
2023/09/10 07:16:02;;;;;;;21.23;11.60;;;20.50;99.90;;;;;;5088433;28;20259;-68
2023/09/10 07:18:32;;;;;;;17.27;11.90;;;20.50;99.90;;;;;;5088441;28;20916;-68
2023/09/10 07:21:02;;;;;;;18.17;12.27;;;20.70;99.90;;;;;;5088507;28;20422;-67
2023/09/10 07:23:28;;;;;;;15.70;10.77;;;20.70;99.90;;;;;;5088382;28;20420;-68
2023/09/10 07:25:55;;;;;;;14.67;10.63;;;20.80;99.90;;;;;;5088090;28;20432;-68
2023/09/10 07:28:21;;;;;;;13.27;11.30;;;20.90;99.90;;;;;;5087802;28;20917;-68
2023/09/10 07:30:46;;;;;;;14.87;10.40;;;21.00;99.90;;;;;;5087616;28;20418;-68
2023/09/10 07:33:12;;;;;;;12.80;11.40;;;21.20;99.90;;;;;;5087658;28;20663;-68
2023/09/10 07:35:37;;;;;;;15.37;11.33;;;21.30;99.90;;;;;;5090103;28;20202;-67
2023/09/10 07:38:03;;;;;;;14.53;12.47;;;21.40;99.90;;;;;;5091878;28;20258;-69
2023/09/10 07:40:29;;;;;;;13.03;11.47;;;21.50;99.90;;;;;;5091830;28;20286;-69
2023/09/10 07:42:58;;;;;;;11.23;10.00;;;21.70;99.90;;;;;;5091749;28;20184;-69
2023/09/10 07:45:24;;;;;;;13.60;11.00;;;21.80;99.90;;;;;;5091690;28;20202;-69
2023/09/10 07:47:50;;;;;;;13.47;10.90;;;21.90;99.90;;;;;;5091669;28;20841;-68
2023/09/10 07:50:16;;;;;;;12.73;10.97;;;22.10;99.90;;;;;;5090158;28;20429;-68
2023/09/10 07:52:41;;;;;;;11.33;10.03;;;22.20;99.90;;;;;;5091480;28;20265;-67
2023/09/10 07:55:07;;;;;;;13.90;10.77;;;22.30;99.90;;;;;;5091424;28;20204;-68
2023/09/10 07:57:33;;;;;;;12.50;9.97;;;22.40;99.90;;;;;;5091376;28;20305;-68
2023/09/10 07:59:58;;;;;;;10.73;9.70;;;22.60;99.90;;;;;;5091323;28;20183;-68
2023/09/10 08:02:26;;;;;;;16.03;10.17;;;22.60;99.90;;;;;;5091666;28;20221;-68
2023/09/10 08:04:54;;;;;;;13.73;11.17;;;22.60;99.90;;;;;;5091327;28;20525;-68
2023/09/10 08:07:19;;;;;;;11.93;10.00;;;22.70;99.90;;;;;;5091275;28;20442;-68
2023/09/10 08:09:45;;;;;;;12.07;10.27;;;22.70;99.90;;;;;;5091440;28;20419;-67
2023/09/10 08:12:11;;;;;;;11.73;8.80;;;22.70;99.90;;;;;;5091292;28;20216;-68
2023/09/10 08:14:38;;;;;;;12.47;9.90;;;22.90;99.90;;;;;;5091177;28;20205;-68
2023/09/10 08:17:04;;;;;;;15.97;10.30;;;22.90;99.90;;;;;;5091078;28;20981;-67
2023/09/10 08:19:30;;;;;;;14.07;10.00;;;23.00;99.90;;;;;;5091085;28;20419;-67
2023/09/10 08:21:55;;;;;;;15.67;9.80;;;23.10;99.90;;;;;;5091065;28;20188;-67
2023/09/10 08:24:22;;;;;;;16.77;10.43;;;23.10;99.90;;;;;;5090965;28;20196;-68
2023/09/10 08:26:47;;;;;;;11.43;9.93;;;23.20;99.90;;;;;;5090891;28;20201;-68
2023/09/10 08:29:13;;;;;;;16.77;9.17;;;23.20;99.90;;;;;;5090845;28;20447;-68
2023/09/10 08:31:39;;;;;;;14.73;9.43;;;23.40;99.90;;;;;;5091004;28;20175;-69
2023/09/10 08:34:04;;;;;;;16.13;10.17;;;23.60;99.90;;;;;;5089333;28;20219;-68
2023/09/10 08:36:30;;;;;;;16.27;9.40;;;23.80;99.90;;;;;;5090876;28;20632;-69
2023/09/10 08:38:55;;;;;;;11.00;8.67;;;24.00;99.90;;;;;;5090796;28;20282;-68
2023/09/10 08:41:32;;;;;;;15.03;9.70;;;24.10;99.90;;;;;;5090788;28;20172;-69
2023/09/10 08:44:01;;;;;;;12.83;9.83;;;24.20;99.90;;;;;;5090862;28;20192;-69
2023/09/10 08:46:31;;;;;;;11.57;9.77;;;24.40;99.90;;;;;;5089368;28;20948;-69
2023/09/10 08:48:57;;;;;;;17.60;10.03;;;24.50;99.90;;;;;;5090806;28;20514;-69
2023/09/10 08:51:24;;;;;;;10.47;9.03;;;24.60;99.90;;;;;;5090771;28;20426;-70
2023/09/10 08:53:51;;;;;;;15.97;9.60;;;24.80;99.90;;;;;;5090438;28;20452;-69
2023/09/10 08:56:17;;;;;;;15.60;10.53;;;24.80;99.90;;;;;;5090449;28;20463;-69
2023/09/10 08:58:44;;;;;;;12.57;8.97;;;24.90;99.90;;;;;;5090374;28;20416;-69
2023/09/10 09:01:10;;;;;;;9.77;8.63;;;25.00;99.90;;;;;;5090781;28;20166;-69
2023/09/10 09:03:36;;;;;;;11.83;9.27;;;25.20;99.90;;;;;;5090442;28;20940;-67
2023/09/10 09:06:04;;;;;;;11.50;9.30;;;25.50;99.90;;;;;;5090505;28;20469;-68
2023/09/10 09:08:32;;;;;;;10.80;9.80;;;25.70;99.90;;;;;;5090320;28;21064;-67
2023/09/10 09:11:03;;;;;;;12.30;9.97;;;26.00;99.90;;;;;;5090386;28;20416;-66
2023/09/10 09:13:37;;;;;;;17.10;9.00;;;26.20;99.90;;;;;;5090205;28;20470;-67
2023/09/10 09:16:07;;;;;;;10.37;9.17;;;26.40;99.90;;;;;;5090159;28;20438;-65
2023/09/10 09:18:35;;;;;;;11.20;8.90;;;26.80;99.90;;;;;;5090332;28;20496;-66
2023/09/10 09:21:21;;;;;;;16.00;9.37;;;27.20;99.90;;;;;;5090134;28;20464;-68
2023/09/10 09:23:52;;;;;;;9.87;8.80;;;27.40;99.90;;;;;;5089941;28;20412;-67
2023/09/10 09:26:21;;;;;;;18.13;9.73;;;27.70;99.90;;;;;;5089693;28;20443;-68
2023/09/10 09:28:47;;;;;;;13.03;8.87;;;28.00;99.90;;;;;;5089908;28;20412;-67
2023/09/10 09:31:12;;;;;;;13.73;8.63;;;28.30;99.90;;;;;;5089899;28;20784;-68
2023/09/10 09:33:39;;;;;;;10.40;8.60;;;28.40;99.90;;;;;;5089719;28;20452;-67
2023/09/10 09:36:08;;;;;;;11.27;9.03;;;28.70;99.90;;;;;;5089588;28;20186;-68
2023/09/10 09:38:34;;;;;;;9.40;8.40;;;28.70;99.90;;;;;;5089383;28;20931;-67
2023/09/10 09:41:06;;;;;;;15.63;8.83;;;29.10;99.90;;;;;;5089542;28;20446;-64
2023/09/10 09:43:34;;;;;;;16.13;9.37;;;29.20;99.90;;;;;;5089605;28;20185;-66
2023/09/10 09:46:00;;;;;;;12.70;8.00;;;28.90;99.90;;;;;;5089778;28;21053;-65
2023/09/10 09:48:25;;;;;;;14.43;8.57;;;28.70;99.90;;;;;;5089786;28;20425;-64
2023/09/10 09:50:51;;;;;;;14.43;9.90;;;28.50;99.90;;;;;;5089656;28;20505;-65
2023/09/10 09:53:17;;;;;;;14.80;9.27;;;28.20;99.90;;;;;;5089770;28;20293;-65
2023/09/10 09:55:44;;;;;;;11.47;8.87;;;28.10;99.90;;;;;;5089533;28;20210;-66
2023/09/10 09:58:11;;;;;;;9.57;8.57;;;28.10;99.90;;;;;;5089252;28;20183;-66
2023/09/10 10:00:37;;;;;;;8.90;7.33;;;28.10;99.90;;;;;;5089949;28;20452;-66
2023/09/10 10:03:05;;;;;;;9.17;8.00;;;28.10;99.90;;;;;;5089700;28;20477;-65
2023/09/10 10:05:32;;;;;;;9.73;8.73;;;28.00;99.90;;;;;;5089521;28;20609;-65
2023/09/10 10:07:59;;;;;;;13.23;8.97;;;28.00;99.90;;;;;;5087238;28;20924;-65
2023/09/10 10:10:24;;;;;;;11.23;8.10;;;28.00;99.90;;;;;;5088488;28;20442;-66
2023/09/10 10:12:52;;;;;;;16.37;8.03;;;28.10;99.90;;;;;;5088347;28;20424;-66
2023/09/10 10:15:19;;;;;;;11.30;9.07;;;28.20;99.90;;;;;;5089527;28;20261;-65
2023/09/10 10:17:45;;;;;;;11.27;8.33;;;28.20;99.90;;;;;;5089657;28;20447;-64
2023/09/10 10:20:12;;;;;;;10.73;9.57;;;28.30;99.90;;;;;;5089389;28;20436;-63
2023/09/10 10:22:39;;;;;;;11.20;8.63;;;28.40;99.90;;;;;;5089310;28;20758;-64
2023/09/10 10:25:05;;;;;;;17.07;8.27;;;28.50;99.90;;;;;;5089239;28;20509;-64
2023/09/10 10:27:35;;;;;;;9.60;8.60;;;28.60;99.90;;;;;;5089091;28;20436;-67
2023/09/10 10:30:02;;;;;;;11.20;8.90;;;28.60;99.90;;;;;;5089660;28;20424;-65
2023/09/10 10:32:36;;;;;;;11.10;8.53;;;28.70;99.90;;;;;;5089528;28;20442;-66
2023/09/10 10:35:06;;;;;;;9.30;8.30;;;28.80;99.90;;;;;;5089415;28;20638;-66
2023/09/10 10:37:57;;;;;;;11.23;8.60;;;28.80;99.90;;;;;;5089166;28;20428;-67
2023/09/10 10:40:31;;;;;;;8.87;7.97;;;28.80;99.90;;;;;;5089023;28;20947;-66
2023/09/10 10:43:25;;;;;;;10.20;8.10;;;28.80;99.90;;;;;;5088924;28;20462;-65
2023/09/10 10:45:55;;;;;;;8.77;7.87;;;28.80;99.90;;;;;;5086313;28;20573;-66
2023/09/10 10:48:25;;;;;;;10.87;8.70;;;28.90;99.90;;;;;;5088982;28;20416;-66
2023/09/10 10:50:56;;;;;;;9.00;8.10;;;29.00;99.90;;;;;;5087479;28;20843;-66
2023/09/10 10:53:24;;;;;;;9.30;7.80;;;29.00;99.90;;;;;;5089115;28;20599;-67
2023/09/10 10:55:53;;;;;;;11.17;7.20;;;29.10;99.90;;;;;;5088894;28;20464;-65
2023/09/10 10:58:20;;;;;;;9.60;8.33;;;29.20;99.90;;;;;;5088754;28;20422;-65
2023/09/10 11:00:51;;;;;;;13.47;8.10;;;29.30;99.90;;;;;;5088904;28;20413;-66
2023/09/10 11:03:18;;;;;;;9.63;8.63;;;29.40;99.90;;;;;;5088610;28;20463;-69
2023/09/10 11:05:53;;;;;;;10.77;8.70;;;29.40;99.90;;;;;;5087275;28;20546;-67
2023/09/10 11:08:35;;;;;;;9.83;8.40;;;29.40;99.90;;;;;;5088387;28;20420;-68
2023/09/10 11:11:03;;;;;;;11.37;8.23;;;29.40;99.90;;;;;;5087955;28;20992;-72
2023/09/10 11:13:30;;;;;;;10.97;8.67;;;29.30;99.90;;;;;;5088437;28;20491;-71
2023/09/10 11:16:05;;;;;;;12.13;8.47;;;29.40;99.90;;;;;;5088440;28;20440;-69
2023/09/10 11:18:36;;;;;;;10.43;8.77;;;29.40;99.90;;;;;;5088329;28;20420;-70
2023/09/10 11:21:06;;;;;;;11.40;7.67;;;29.50;99.90;;;;;;5088317;28;20943;-71
2023/09/10 11:23:33;;;;;;;9.30;8.37;;;29.60;99.90;;;;;;5087045;28;20417;-70
2023/09/10 11:26:13;;;;;;;9.70;7.40;;;29.60;99.90;;;;;;5088497;28;20436;-72
2023/09/10 11:28:44;;;;;;;8.27;7.57;;;29.50;98.90;;;;;;5088476;28;20424;-71
2023/09/10 11:31:28;;;;;;;8.60;7.70;;;29.50;98.60;;;;;;5088044;28;20900;-73
2023/09/10 11:33:57;;;;;;;8.43;7.63;;;29.50;99.60;;;;;;5087805;28;20546;-74
2023/09/10 11:36:24;;;;;;;11.13;7.90;;;29.50;99.90;;;;;;5086415;28;20530;-70
2023/09/10 11:38:54;;;;;;;7.90;7.20;;;29.60;98.90;;;;;;5088353;28;20423;-68
2023/09/10 11:41:20;;;;;;;8.77;7.43;;;29.60;99.40;;;;;;5088382;28;20469;-66
2023/09/10 11:43:49;;;;;;;8.37;7.50;;;29.70;98.10;;;;;;5088408;28;20519;-69
2023/09/10 11:46:14;;;;;;;9.23;7.33;;;29.60;97.10;;;;;;5088534;28;20802;-68
2023/09/10 11:48:40;;;;;;;10.73;7.63;;;29.60;98.70;;;;;;5088335;28;20420;-68
2023/09/10 11:51:06;;;;;;;8.33;7.33;;;29.60;97.80;;;;;;5088197;28;20688;-68
2023/09/10 11:53:33;;;;;;;9.97;8.10;;;29.70;96.70;;;;;;5088160;28;20459;-68
2023/09/10 11:55:59;;;;;;;8.63;7.83;;;29.60;97.40;;;;;;5088077;28;20210;-68
2023/09/10 11:58:25;;;;;;;8.57;7.40;;;29.70;97.20;;;;;;5088153;28;20451;-69
2023/09/10 12:00:52;;;;;;;9.13;7.63;;;29.90;95.70;;;;;;5088008;28;20423;-68
2023/09/10 12:03:17;;;;;;;8.90;8.03;;;29.80;96.00;;;;;;5088048;28;20917;-67
2023/09/10 12:05:43;;;;;;;7.67;6.87;;;29.90;96.60;;;;;;5087923;28;20436;-68
2023/09/10 12:08:09;;;;;;;7.70;6.90;;;29.90;95.50;;;;;;5087805;28;20260;-67
2023/09/10 12:10:36;;;;;;;13.97;7.37;;;29.80;95.00;;;;;;5087961;28;20428;-68
2023/09/10 12:13:03;;;;;;;14.37;8.33;;;29.90;95.80;;;;;;5087645;28;20197;-67
2023/09/10 12:15:31;;;;;;;9.73;6.93;;;30.00;96.10;;;;;;5087572;28;20431;-67
2023/09/10 12:18:00;;;;;;;14.40;7.50;;;30.00;95.00;;;;;;5087645;28;20423;-68
2023/09/10 12:20:26;;;;;;;11.97;8.23;;;30.00;95.70;;;;;;5086427;28;20420;-67
2023/09/10 12:22:52;;;;;;;10.27;7.43;;;29.90;93.10;;;;;;5091238;28;20416;-68
2023/09/10 12:25:18;;;;;;;8.40;7.33;;;29.90;96.20;;;;;;5090790;28;20426;-67
2023/09/10 12:27:44;;;;;;;7.23;6.63;;;29.90;94.80;;;;;;5089558;28;20420;-68
2023/09/10 12:30:10;;;;;;;7.90;7.10;;;29.90;94.90;;;;;;5090832;28;20539;-68
2023/09/10 12:32:36;;;;;;;8.97;6.90;;;30.00;93.60;;;;;;5090776;28;20253;-68
2023/09/10 12:35:02;;;;;;;8.90;7.87;;;30.00;94.10;;;;;;5090947;28;20551;-67